createdAt,value
2018-03-17T00:00:27.047Z,9.64
2018-03-17T00:02:58.756Z,9.56
2018-03-17T00:05:28.530Z,9.63
2018-03-17T00:08:24.403Z,9.54
2018-03-17T00:10:58.771Z,9.47
2018-03-17T00:13:29.735Z,9.42
2018-03-17T00:16:11.690Z,9.35
2018-03-17T00:18:41.823Z,9.49
2018-03-17T00:21:14.828Z,9.52
2018-03-17T00:23:45.276Z,9.67
2018-03-17T00:26:18.083Z,9.42
2018-03-17T00:29:01.452Z,9.52
2018-03-17T00:31:33.716Z,9.45
2018-03-17T00:34:18.650Z,9.28
2018-03-17T00:37:00.052Z,9.16
2018-03-17T00:39:33.698Z,9.09
2018-03-17T00:42:03.760Z,9.10
2018-03-17T00:44:43.398Z,9.06
2018-03-17T00:47:19.077Z,9.02
2018-03-17T00:49:49.660Z,9.04
2018-03-17T00:52:27.692Z,9.05
2018-03-17T00:55:08.892Z,9.15
2018-03-17T00:57:41.371Z,9.12
2018-03-17T01:00:32.059Z,9.06
2018-03-17T01:03:18.630Z,9.01
2018-03-17T01:06:01.841Z,9.00
2018-03-17T01:08:46.572Z,9.01
2018-03-17T01:11:18.103Z,9.15
2018-03-17T01:13:52.785Z,9.18
2018-03-17T01:16:26.678Z,9.23
2018-03-17T01:19:01.545Z,9.19
2018-03-17T01:21:31.304Z,9.15
2018-03-17T01:24:19.046Z,9.11
2018-03-17T01:26:59.489Z,9.16
2018-03-17T01:29:38.673Z,9.09
2018-03-17T01:32:08.934Z,9.09
2018-03-17T01:34:42.067Z,9.01
2018-03-17T01:37:16.320Z,8.96
2018-03-17T01:40:00.331Z,8.90
2018-03-17T01:42:44.213Z,8.85
2018-03-17T01:45:26.456Z,8.83
2018-03-17T01:47:58.970Z,8.85
2018-03-17T01:50:32.314Z,8.87
2018-03-17T01:53:19.598Z,8.83
2018-03-17T01:55:51.727Z,8.82
2018-03-17T01:58:22.610Z,8.92
2018-03-17T02:00:56.921Z,8.93
2018-03-17T02:03:31.527Z,8.89
2018-03-17T02:06:04.732Z,8.94
2018-03-17T02:08:38.737Z,8.86
2018-03-17T02:11:18.535Z,8.92
2018-03-17T02:14:07.152Z,8.86
2018-03-17T02:16:49.110Z,8.86
2018-03-17T02:19:21.305Z,8.88
2018-03-17T02:22:10.333Z,8.89
2018-03-17T02:25:02.932Z,8.90
2018-03-17T02:27:50.503Z,8.89
2018-03-17T02:30:26.729Z,8.82
2018-03-17T02:33:06.810Z,8.81
2018-03-17T02:35:37.573Z,8.85
2018-03-17T02:38:22.401Z,8.86
2018-03-17T02:40:56.162Z,8.78
2018-03-17T02:43:26.261Z,8.79
2018-03-17T02:45:59.434Z,8.84
2018-03-17T02:48:38.806Z,8.83
2018-03-17T02:51:09.630Z,8.81
2018-03-17T02:53:40.355Z,8.81
2018-03-17T02:56:26.797Z,8.75
2018-03-17T02:59:01.844Z,8.74
2018-03-17T03:01:39.126Z,8.77
2018-03-17T03:04:21.316Z,8.77
2018-03-17T03:06:51.052Z,8.80
2018-03-17T03:09:21.494Z,8.82
2018-03-17T03:14:56.469Z,8.72
2018-03-17T03:17:30.600Z,8.71
2018-03-17T03:20:01.893Z,8.69
2018-03-17T03:22:37.339Z,8.64
2018-03-17T03:25:08.581Z,8.66
2018-03-17T03:27:52.884Z,8.64
2018-03-17T03:30:29.535Z,8.71
2018-03-17T03:33:00.557Z,8.68
2018-03-17T03:35:31.204Z,8.68
2018-03-17T03:38:06.693Z,8.67
2018-03-17T03:40:38.775Z,8.64
2018-03-17T03:43:16.133Z,8.62
2018-03-17T03:45:48.026Z,8.59
2018-03-17T03:48:32.810Z,8.58
2018-03-17T03:51:11.278Z,8.57
2018-03-17T03:53:42.274Z,8.59
2018-03-17T03:56:23.926Z,8.61
2018-03-17T03:58:56.740Z,8.63
2018-03-17T04:01:30.159Z,8.69
2018-03-17T04:04:00.591Z,8.68
2018-03-17T04:06:33.233Z,8.67
2018-03-17T04:09:04.176Z,8.63
2018-03-17T04:11:35.229Z,8.61
2018-03-17T04:14:09.663Z,8.65
2018-03-17T04:16:42.568Z,8.63
2018-03-17T04:19:25.557Z,8.66
2018-03-17T04:21:56.196Z,8.66
2018-03-17T04:24:33.189Z,8.67
2018-03-17T04:27:07.688Z,8.68
2018-03-17T04:29:37.545Z,8.69
2018-03-17T04:32:27.172Z,8.70
2018-03-17T04:35:14.671Z,8.71
2018-03-17T04:37:59.333Z,8.66
2018-03-17T04:40:32.993Z,8.61
2018-03-17T04:43:07.344Z,8.58
2018-03-17T04:45:40.824Z,8.53
2018-03-17T04:48:14.512Z,8.53
2018-03-17T04:51:02.830Z,8.55
2018-03-17T04:53:42.659Z,8.59
2018-03-17T04:56:14.732Z,8.63
2018-03-17T04:58:47.755Z,8.62
2018-03-17T05:01:17.591Z,8.60
2018-03-17T05:03:47.814Z,8.54
2018-03-17T05:06:24.367Z,8.52
2018-03-17T05:08:55.308Z,8.53
2018-03-17T05:11:25.019Z,8.51
2018-03-17T05:13:54.595Z,8.48
2018-03-17T05:16:24.256Z,8.42
2018-03-17T05:18:55.350Z,8.37
2018-03-17T05:21:24.814Z,8.35
2018-03-17T05:23:55.408Z,8.34
2018-03-17T05:26:25.047Z,8.35
2018-03-17T05:28:54.662Z,8.36
2018-03-17T05:31:24.533Z,8.37
2018-03-17T05:33:54.198Z,8.39
2018-03-17T05:36:24.488Z,8.42
2018-03-17T05:38:54.144Z,8.45
2018-03-17T05:41:24.468Z,8.52
2018-03-17T05:43:54.777Z,8.48
2018-03-17T05:46:25.160Z,8.48
2018-03-17T05:48:55.403Z,8.52
2018-03-17T05:51:25.085Z,8.54
2018-03-17T05:53:54.741Z,8.59
2018-03-17T05:56:24.290Z,8.57
2018-03-17T05:58:53.933Z,8.61
2018-03-17T06:01:23.546Z,8.54
2018-03-17T06:03:53.332Z,8.36
2018-03-17T06:06:22.873Z,8.31
2018-03-17T06:08:53.165Z,8.29
2018-03-17T06:11:22.884Z,8.29
2018-03-17T06:13:53.402Z,8.29
2018-03-17T06:16:23.173Z,8.33
2018-03-17T06:18:53.618Z,8.37
2018-03-17T06:21:23.797Z,8.46
2018-03-17T06:23:54.175Z,8.44
2018-03-17T06:26:23.651Z,8.48
2018-03-17T06:28:54.020Z,8.57
2018-03-17T06:31:23.537Z,8.54
2018-03-17T06:33:53.121Z,8.53
2018-03-17T06:36:22.888Z,8.53
2018-03-17T06:38:52.573Z,8.57
2018-03-17T06:41:22.430Z,8.61
2018-03-17T06:43:52.316Z,8.69
2018-03-17T06:46:21.966Z,8.76
2018-03-17T06:48:51.614Z,8.84
2018-03-17T06:51:22.356Z,8.87
2018-03-17T06:53:52.959Z,8.86
2018-03-17T06:56:22.500Z,8.91
2018-03-17T06:58:52.193Z,8.97
2018-03-17T07:01:21.846Z,9.03
2018-03-17T07:03:52.312Z,9.05
2018-03-17T07:06:21.931Z,9.15
2018-03-17T07:08:52.048Z,9.26
2018-03-17T07:11:22.188Z,9.34
2018-03-17T07:13:51.903Z,9.42
2018-03-17T07:16:21.456Z,9.56
2018-03-17T07:18:51.832Z,9.70
2018-03-17T07:21:21.512Z,9.74
2018-03-17T07:23:51.097Z,9.69
2018-03-17T07:26:21.557Z,9.63
2018-03-17T07:28:51.279Z,9.51
2018-03-17T07:31:21.547Z,9.50
2018-03-17T07:33:51.279Z,9.40
2018-03-17T07:36:22.100Z,9.31
2018-03-17T07:38:52.882Z,9.35
2018-03-17T07:41:23.086Z,9.44
2018-03-17T07:43:52.915Z,9.48
2018-03-17T07:46:23.919Z,9.66
2018-03-17T07:48:55.273Z,9.87
2018-03-17T07:51:27.818Z,10.02
2018-03-17T07:53:57.709Z,10.08
2018-03-17T07:56:29.142Z,10.11
2018-03-17T07:58:58.781Z,10.21
2018-03-17T08:01:28.421Z,10.29
2018-03-17T08:03:58.737Z,10.43
2018-03-17T08:06:28.330Z,10.40
2018-03-17T08:08:58.057Z,10.45
2018-03-17T08:11:28.887Z,10.30
2018-03-17T08:13:58.591Z,10.38
2018-03-17T08:16:29.057Z,10.63
2018-03-17T08:18:59.111Z,10.75
2018-03-17T08:21:29.747Z,11.02
2018-03-17T08:24:05.431Z,11.35
2018-03-17T08:26:36.046Z,12.07
2018-03-17T08:29:06.105Z,12.52
2018-03-17T08:31:35.922Z,13.25
2018-03-17T08:34:06.334Z,13.30
2018-03-17T08:36:38.217Z,13.75
2018-03-17T08:39:08.174Z,14.31
2018-03-17T08:41:37.829Z,14.57
2018-03-17T08:44:08.271Z,14.82
2018-03-17T08:46:38.089Z,14.84
2018-03-17T08:49:07.823Z,14.69
2018-03-17T08:51:38.298Z,14.05
2018-03-17T08:54:10.921Z,13.65
2018-03-17T08:56:41.190Z,13.92
2018-03-17T08:59:12.267Z,14.25
2018-03-17T09:01:41.842Z,14.24
2018-03-17T09:04:12.436Z,14.18
2018-03-17T09:06:43.120Z,14.89
2018-03-17T09:09:13.473Z,15.25
2018-03-17T09:11:43.163Z,15.50
2018-03-17T09:14:13.632Z,15.54
2018-03-17T09:16:44.523Z,16.10
2018-03-17T09:19:15.639Z,16.49
2018-03-17T09:21:46.554Z,16.91
2018-03-17T09:24:16.722Z,16.79
2018-03-17T09:26:46.696Z,16.64
2018-03-17T09:29:23.328Z,16.12
2018-03-17T09:31:53.373Z,15.67
2018-03-17T09:34:23.616Z,15.14
2018-03-17T09:36:54.701Z,14.54
2018-03-17T09:39:25.186Z,13.88
2018-03-17T09:41:55.913Z,14.21
2018-03-17T09:44:26.811Z,15.05
2018-03-17T09:46:57.475Z,15.51
2018-03-17T09:49:27.971Z,16.35
2018-03-17T09:51:58.265Z,16.86
2018-03-17T09:54:29.916Z,15.90
2018-03-17T09:57:01.677Z,16.16
2018-03-17T09:59:31.305Z,16.07
2018-03-17T10:02:02.202Z,16.32
2018-03-17T10:04:31.876Z,16.48
2018-03-17T10:07:02.753Z,15.93
2018-03-17T10:09:32.502Z,15.58
2018-03-17T10:12:02.269Z,15.39
2018-03-17T10:14:32.082Z,15.31
2018-03-17T10:17:02.209Z,15.80
2018-03-17T10:19:31.729Z,16.25
2018-03-17T10:22:01.638Z,16.42
2018-03-17T10:24:31.554Z,16.78
2018-03-17T10:27:01.463Z,16.54
2018-03-17T10:29:31.178Z,15.92
2018-03-17T10:32:00.851Z,15.77
2018-03-17T10:34:30.475Z,15.60
2018-03-17T10:36:59.979Z,14.68
2018-03-17T10:39:29.610Z,15.33
2018-03-17T10:41:59.594Z,15.36
2018-03-17T10:44:31.401Z,16.20
2018-03-17T10:47:01.249Z,16.37
2018-03-17T10:49:31.587Z,16.37
2018-03-17T10:52:01.085Z,16.78
2018-03-17T10:54:30.798Z,16.79
2018-03-17T10:57:00.434Z,16.16
2018-03-17T10:59:30.253Z,15.35
2018-03-17T11:02:05.686Z,15.24
2018-03-17T11:04:42.084Z,15.36
2018-03-17T11:07:13.489Z,15.46
2018-03-17T11:09:42.993Z,15.72
2018-03-17T11:12:14.835Z,15.72
2018-03-17T11:14:44.509Z,15.75
2018-03-17T11:17:14.337Z,16.22
2018-03-17T11:19:44.251Z,16.77
2018-03-17T11:22:14.461Z,17.13
2018-03-17T11:24:44.979Z,16.30
2018-03-17T11:27:17.072Z,15.73
2018-03-17T11:29:47.537Z,15.56
2018-03-17T11:32:17.389Z,15.76
2018-03-17T11:34:47.325Z,15.87
2018-03-17T11:37:20.510Z,15.79
2018-03-17T11:39:50.774Z,15.62
2018-03-17T11:45:40.470Z,14.37
2018-03-17T11:48:10.329Z,14.01
2018-03-17T11:50:40.731Z,13.69
2018-03-17T11:53:10.600Z,13.44
2018-03-17T11:55:42.739Z,13.33
2018-03-17T11:58:19.477Z,13.31
2018-03-17T12:00:49.527Z,13.30
2018-03-17T12:03:19.520Z,13.15
2018-03-17T12:05:50.248Z,12.99
2018-03-17T12:08:20.214Z,12.99
2018-03-17T12:10:49.779Z,13.14
2018-03-17T12:13:19.731Z,13.40
2018-03-17T12:15:50.417Z,13.73
2018-03-17T12:18:21.833Z,13.99
2018-03-17T12:20:51.516Z,14.41
2018-03-17T12:23:21.119Z,14.75
2018-03-17T12:25:53.339Z,15.18
2018-03-17T12:28:23.833Z,15.62
2018-03-17T12:30:53.638Z,16.00
2018-03-17T12:33:23.168Z,16.09
2018-03-17T12:35:53.364Z,16.28
2018-03-17T12:38:23.285Z,16.43
2018-03-17T12:40:52.964Z,16.37
2018-03-17T12:43:23.320Z,16.08
2018-03-17T12:45:52.976Z,15.93
2018-03-17T12:48:23.668Z,16.23
2018-03-17T12:54:17.483Z,15.94
2018-03-17T12:56:47.076Z,15.50
2018-03-17T12:59:17.813Z,14.77
2018-03-17T13:01:49.019Z,13.77
2018-03-17T13:04:18.862Z,12.98
2018-03-17T13:06:48.459Z,12.67
2018-03-17T13:09:18.178Z,12.54
2018-03-17T13:11:48.490Z,12.63
2018-03-17T13:14:18.593Z,12.91
2018-03-17T13:16:48.947Z,13.11
2018-03-17T13:19:34.525Z,13.31
2018-03-17T13:22:05.297Z,13.44
2018-03-17T13:24:36.216Z,13.56
2018-03-17T13:27:23.961Z,13.62
2018-03-17T13:29:54.756Z,13.63
2018-03-17T13:32:42.399Z,13.61
2018-03-17T13:35:12.074Z,13.58
2018-03-17T13:37:41.817Z,13.70
2018-03-17T13:40:29.348Z,13.96
2018-03-17T13:42:59.360Z,13.94
2018-03-17T13:45:30.077Z,13.81
2018-03-17T13:47:59.863Z,13.94
2018-03-17T13:50:30.312Z,13.64
2018-03-17T13:53:00.221Z,13.47
2018-03-17T13:55:29.858Z,13.49
2018-03-17T13:58:00.329Z,13.51
2018-03-17T14:00:39.573Z,13.71
2018-03-17T14:03:11.375Z,13.71
2018-03-17T14:05:41.935Z,13.66
2018-03-17T14:08:12.983Z,13.58
2018-03-17T14:10:45.801Z,13.70
2018-03-17T14:13:16.487Z,13.89
2018-03-17T14:15:47.490Z,14.04
2018-03-17T14:18:17.448Z,14.34
2018-03-17T14:20:48.254Z,14.55
2018-03-17T14:23:19.930Z,14.76
2018-03-17T14:25:49.940Z,14.96
2018-03-17T14:28:20.156Z,15.07
2018-03-17T14:30:55.962Z,14.79
2018-03-17T14:33:26.656Z,14.72
2018-03-17T14:35:57.279Z,14.69
2018-03-17T14:38:27.968Z,14.51
2018-03-17T14:40:59.134Z,14.34
2018-03-17T14:43:29.791Z,14.34
2018-03-17T14:46:00.048Z,14.38
2018-03-17T14:48:30.537Z,14.40
2018-03-17T14:51:02.654Z,14.45
2018-03-17T14:53:33.097Z,14.40
2018-03-17T14:56:03.119Z,14.30
2018-03-17T14:58:33.537Z,14.26
2018-03-17T15:01:04.582Z,14.20
2018-03-17T15:03:37.167Z,14.20
2018-03-17T15:06:12.601Z,14.20
2018-03-17T15:08:42.574Z,14.18
2018-03-17T15:11:12.682Z,14.18
2018-03-17T15:13:43.388Z,14.10
2018-03-17T15:16:14.881Z,13.98
2018-03-17T15:18:46.121Z,13.90
2018-03-17T15:21:16.112Z,13.69
2018-03-17T15:23:46.381Z,13.56
2018-03-17T15:26:17.482Z,13.54
2018-03-17T15:28:47.874Z,13.56
2018-03-17T15:31:20.381Z,13.67
2018-03-17T15:33:50.256Z,13.80
2018-03-17T15:36:20.641Z,13.94
2018-03-17T15:38:51.199Z,14.03
2018-03-17T15:41:22.639Z,14.06
2018-03-17T15:43:53.886Z,14.02
2018-03-17T15:46:24.093Z,13.90
2018-03-17T15:48:54.004Z,13.76
2018-03-17T15:51:24.514Z,13.67
2018-03-17T15:53:54.218Z,13.62
2018-03-17T15:56:25.613Z,13.63
2018-03-17T15:58:56.358Z,13.59
2018-03-17T16:01:26.044Z,13.60
2018-03-17T16:03:55.647Z,13.58
2018-03-17T16:06:25.563Z,13.49
2018-03-17T16:08:57.042Z,13.56
2018-03-17T16:11:26.573Z,13.57
2018-03-17T16:13:56.849Z,13.53
2018-03-17T16:16:27.386Z,13.53
2018-03-17T16:18:56.860Z,13.47
2018-03-17T16:21:26.677Z,13.51
2018-03-17T16:23:57.474Z,13.33
2018-03-17T16:26:29.964Z,13.09
2018-03-17T16:29:00.452Z,12.85
2018-03-17T16:31:30.135Z,12.52
2018-03-17T16:33:59.695Z,12.41
2018-03-17T16:36:29.271Z,12.36
2018-03-17T16:38:59.087Z,12.31
2018-03-17T16:41:30.766Z,12.09
2018-03-17T16:44:14.946Z,11.96
2018-03-17T16:46:45.304Z,11.90
2018-03-17T16:49:14.777Z,11.75
2018-03-17T16:51:44.567Z,11.92
2018-03-17T16:54:14.189Z,11.73
2018-03-17T16:56:46.058Z,11.72
2018-03-17T16:59:17.709Z,11.69
2018-03-17T17:01:49.628Z,11.77
2018-03-17T17:04:19.374Z,11.81
2018-03-17T17:06:49.967Z,11.91
2018-03-17T17:09:20.604Z,11.97
2018-03-17T17:11:50.223Z,11.86
2018-03-17T17:14:21.159Z,11.68
2018-03-17T17:16:51.164Z,11.63
2018-03-17T17:19:20.821Z,11.54
2018-03-17T17:21:51.399Z,11.48
2018-03-17T17:24:22.036Z,11.38
2018-03-17T17:26:53.488Z,11.31
2018-03-17T17:29:25.703Z,11.23
2018-03-17T17:31:58.021Z,11.15
2018-03-17T17:34:27.566Z,11.02
2018-03-17T17:36:57.301Z,10.93
2018-03-17T17:39:27.402Z,10.89
2018-03-17T17:41:57.884Z,10.93
2018-03-17T17:44:27.481Z,10.89
2018-03-17T17:46:57.098Z,10.84
2018-03-17T17:49:26.921Z,10.84
2018-03-17T17:51:56.485Z,10.83
2018-03-17T17:54:29.166Z,10.84
2018-03-17T17:57:00.398Z,10.85
2018-03-17T17:59:30.887Z,10.76
2018-03-17T18:02:00.810Z,10.70
2018-03-17T18:04:30.934Z,10.65
2018-03-17T18:07:00.734Z,10.60
2018-03-17T18:09:31.788Z,10.52
2018-03-17T18:12:01.629Z,10.53
2018-03-17T18:14:31.529Z,10.57
2018-03-17T18:17:02.024Z,10.58
2018-03-17T18:19:32.100Z,10.50
2018-03-17T18:22:02.224Z,10.45
2018-03-17T18:24:33.135Z,10.44
2018-03-17T18:27:03.768Z,10.34
2018-03-17T18:29:34.533Z,10.26
2018-03-17T18:32:05.560Z,10.24
2018-03-17T18:34:36.286Z,10.25
2018-03-17T18:37:06.229Z,10.24
2018-03-17T18:39:36.817Z,10.13
2018-03-17T18:42:06.609Z,10.09
2018-03-17T18:44:37.528Z,10.11
2018-03-17T18:47:08.368Z,10.20
2018-03-17T18:49:38.269Z,10.31
2018-03-17T18:52:07.907Z,10.36
2018-03-17T18:54:37.565Z,10.27
2018-03-17T18:57:08.173Z,10.22
2018-03-17T18:59:37.958Z,10.27
2018-03-17T19:02:07.893Z,10.31
2018-03-17T19:04:37.420Z,10.27
2018-03-17T19:07:07.164Z,10.14
2018-03-17T19:09:37.605Z,10.02
2018-03-17T19:12:07.239Z,9.94
2018-03-17T19:14:36.870Z,9.92
2018-03-17T19:17:06.445Z,9.88
2018-03-17T19:19:36.092Z,9.76
2018-03-17T19:22:05.566Z,9.71
2018-03-17T19:24:35.091Z,9.71
2018-03-17T19:27:05.270Z,9.69
2018-03-17T19:29:35.819Z,9.63
2018-03-17T19:32:05.303Z,9.50
2018-03-17T19:34:35.840Z,9.45
2018-03-17T19:37:05.586Z,9.37
2018-03-17T19:39:35.088Z,9.36
2018-03-17T19:42:04.807Z,9.33
2018-03-17T19:44:35.487Z,9.39
2018-03-17T19:47:05.240Z,9.39
2018-03-17T19:49:34.852Z,9.30
2018-03-17T19:52:05.550Z,9.16
2018-03-17T19:54:36.021Z,9.13
2018-03-17T19:57:12.039Z,9.16
2018-03-17T19:59:49.984Z,9.15
2018-03-17T20:02:20.548Z,8.92
2018-03-17T20:04:50.828Z,8.89
2018-03-17T20:07:21.968Z,8.55
2018-03-17T20:09:53.168Z,8.26
2018-03-17T20:12:24.524Z,8.07
2018-03-17T20:14:55.545Z,7.87
2018-03-17T20:17:26.790Z,7.83
2018-03-17T20:19:56.972Z,7.93
2018-03-17T20:22:26.590Z,7.97
2018-03-17T20:25:12.892Z,7.89
2018-03-17T20:27:47.149Z,7.63
2018-03-17T20:30:17.427Z,7.69
2018-03-17T20:32:47.796Z,7.80
2018-03-17T20:35:19.918Z,7.84
2018-03-17T20:37:49.629Z,7.82
2018-03-17T20:40:19.638Z,7.90
2018-03-17T20:42:49.623Z,7.89
2018-03-17T20:45:21.944Z,7.98
2018-03-17T20:47:51.858Z,8.02
2018-03-17T20:50:21.630Z,8.11
2018-03-17T20:52:51.539Z,8.23
2018-03-17T20:55:22.722Z,8.29
2018-03-17T20:57:52.297Z,8.27
2018-03-17T21:00:21.904Z,8.27
2018-03-17T21:02:53.413Z,8.25
2018-03-17T21:05:29.064Z,8.39
2018-03-17T21:08:05.342Z,8.44
2018-03-17T21:10:35.314Z,8.57
2018-03-17T21:13:04.888Z,8.66
2018-03-17T21:15:35.347Z,8.77
2018-03-17T21:18:05.033Z,8.75
2018-03-17T21:20:35.431Z,8.82
2018-03-17T21:23:05.744Z,8.72
2018-03-17T21:25:35.441Z,8.74
2018-03-17T21:28:05.007Z,8.61
2018-03-17T21:30:35.001Z,8.57
2018-03-17T21:33:04.675Z,8.55
2018-03-17T21:35:35.139Z,8.44
2018-03-17T21:38:05.419Z,8.32
2018-03-17T21:40:35.544Z,8.38
2018-03-17T21:43:05.680Z,8.46
2018-03-17T21:45:35.422Z,8.48
2018-03-17T21:48:05.770Z,8.38
2018-03-17T21:50:35.385Z,8.37
2018-03-17T21:53:05.187Z,8.30
2018-03-17T21:55:35.749Z,8.25
2018-03-17T21:58:05.456Z,8.19
2018-03-17T22:00:35.030Z,8.28
2018-03-17T22:03:05.314Z,8.31
2018-03-17T22:05:35.499Z,8.42
2018-03-17T22:08:05.331Z,8.51
2018-03-17T22:10:34.795Z,8.60
2018-03-17T22:13:04.466Z,8.65
2018-03-17T22:15:34.139Z,8.63
2018-03-17T22:18:04.458Z,8.66
2018-03-17T22:20:34.460Z,8.69
2018-03-17T22:23:04.435Z,8.64
2018-03-17T22:25:36.119Z,8.57
2018-03-17T22:28:06.240Z,8.50
2018-03-17T22:30:37.289Z,8.46
2018-03-17T22:33:13.740Z,8.40
2018-03-17T22:35:45.649Z,8.33
2018-03-17T22:38:15.576Z,8.23
2018-03-17T22:40:45.380Z,8.11
2018-03-17T22:43:14.881Z,8.06
2018-03-17T22:45:45.154Z,8.05
2018-03-17T22:48:14.803Z,8.06
2018-03-17T22:50:44.641Z,8.09
2018-03-17T22:53:14.261Z,8.13
2018-03-17T22:55:43.759Z,8.10
2018-03-17T22:58:13.719Z,8.03
2018-03-17T23:00:44.015Z,8.00
2018-03-17T23:03:14.317Z,8.04
2018-03-17T23:05:49.115Z,8.03
2018-03-17T23:08:20.879Z,8.09
2018-03-17T23:10:50.412Z,8.23
2018-03-17T23:13:19.995Z,8.28
2018-03-17T23:15:49.671Z,8.28
2018-03-17T23:18:20.110Z,8.33
2018-03-17T23:20:50.436Z,8.39
2018-03-17T23:23:20.395Z,8.41
2018-03-17T23:25:49.914Z,8.46
2018-03-17T23:28:19.915Z,8.40
2018-03-17T23:30:50.058Z,8.37
2018-03-17T23:33:20.941Z,8.31
2018-03-17T23:35:51.909Z,8.26
2018-03-17T23:38:21.745Z,8.24
2018-03-17T23:40:51.277Z,8.24
2018-03-17T23:43:23.675Z,8.22
2018-03-17T23:45:53.365Z,8.19
2018-03-17T23:48:23.613Z,8.16
2018-03-17T23:50:53.564Z,8.17
2018-03-17T23:53:23.127Z,8.14
2018-03-17T23:55:53.094Z,8.12
2018-03-17T23:58:22.811Z,8.10
